createdAt,value
2018-02-24T00:02:29.753Z,102256.91
2018-02-24T00:07:31.882Z,102262.55
2018-02-24T00:12:33.262Z,102258.84
2018-02-24T00:17:34.579Z,102249.33
2018-02-24T00:22:41.787Z,102256.36
2018-02-24T00:27:43.895Z,102258.41
2018-02-24T00:32:46.060Z,102253.54
2018-02-24T00:37:47.404Z,102263.78
2018-02-24T00:42:48.834Z,102252.20
2018-02-24T00:47:50.197Z,102261.58
2018-02-24T00:52:51.528Z,102261.27
2018-02-24T00:57:52.908Z,102250.80
2018-02-24T01:02:54.280Z,102263.33
2018-02-24T01:07:55.705Z,102238.12
2018-02-24T01:12:57.041Z,102228.02
2018-02-24T01:17:58.400Z,102239.58
2018-02-24T01:23:00.507Z,102230.34
2018-02-24T01:28:02.617Z,102236.52
2018-02-24T01:33:04.693Z,102238.16
2018-02-24T01:38:06.097Z,102233.16
2018-02-24T01:43:07.469Z,102242.41
2018-02-24T01:48:08.799Z,102248.72
2018-02-24T01:53:10.855Z,102238.89
2018-02-24T01:58:12.172Z,102241.50
2018-02-24T02:03:13.562Z,102239.13
2018-02-24T02:08:15.000Z,102240.08
2018-02-24T02:13:16.484Z,102240.36
2018-02-24T02:18:17.865Z,102233.17
2018-02-24T02:23:20.045Z,102249.59
2018-02-24T02:28:21.493Z,102238.83
2018-02-24T02:33:22.902Z,102248.59
2018-02-24T02:38:24.301Z,102240.40
2018-02-24T02:43:25.648Z,102240.28
2018-02-24T02:48:27.005Z,102242.90
2018-02-24T02:53:28.311Z,102253.52
2018-02-24T02:58:30.413Z,102246.33
2018-02-24T03:03:32.491Z,102246.95
2018-02-24T03:08:33.855Z,102254.36
2018-02-24T03:13:35.193Z,102266.63
2018-02-24T03:18:36.528Z,102270.89
2018-02-24T03:23:37.920Z,102282.15
2018-02-24T03:28:39.289Z,102274.23
2018-02-24T03:33:40.721Z,102279.98
2018-02-24T03:38:42.088Z,102287.17
2018-02-24T03:43:43.444Z,102289.14
2018-02-24T03:48:44.812Z,102292.92
2018-02-24T03:53:46.156Z,102306.03
2018-02-24T03:58:47.537Z,102310.39
2018-02-24T04:03:48.862Z,102305.73
2018-02-24T04:08:50.238Z,102317.58
2018-02-24T04:13:51.610Z,102317.79
2018-02-24T04:18:52.967Z,102314.37
2018-02-24T04:23:55.080Z,102313.53
2018-02-24T04:28:57.223Z,102312.89
2018-02-24T04:33:58.579Z,102321.95
2018-02-24T04:38:59.900Z,102343.03
2018-02-24T04:44:01.266Z,102337.13
2018-02-24T04:49:03.375Z,102342.75
2018-02-24T04:54:04.719Z,102321.64
2018-02-24T04:59:06.045Z,102323.63
2018-02-24T05:04:08.123Z,102340.44
2018-02-24T05:09:09.477Z,102344.02
2018-02-24T05:14:10.818Z,102343.34
2018-02-24T05:19:12.172Z,102338.53
2018-02-24T05:24:13.493Z,102340.44
2018-02-24T05:29:14.956Z,102354.64
2018-02-24T05:34:16.335Z,102361.05
2018-02-24T05:39:19.189Z,102363.66
2018-02-24T05:44:22.290Z,102362.05
2018-02-24T05:49:23.772Z,102379.50
2018-02-24T05:54:25.325Z,102373.81
2018-02-24T05:59:26.718Z,102381.13
2018-02-24T06:04:28.086Z,102383.97
2018-02-24T06:09:29.415Z,102385.06
2018-02-24T06:14:31.555Z,102395.49
2018-02-24T06:19:32.936Z,102412.29
2018-02-24T06:24:34.263Z,102417.61
2018-02-24T06:29:35.656Z,102417.66
2018-02-24T06:34:37.040Z,102418.44
2018-02-24T06:39:38.482Z,102421.81
2018-02-24T06:44:40.605Z,102425.96
2018-02-24T06:49:41.956Z,102421.45
2018-02-24T06:54:43.370Z,102414.05
2018-02-24T06:59:46.232Z,102412.20
2018-02-24T07:04:47.725Z,102420.83
2018-02-24T07:09:49.891Z,102426.48
2018-02-24T07:14:51.367Z,102442.97
2018-02-24T07:19:52.780Z,102455.36
2018-02-24T07:24:54.220Z,102438.27
2018-02-24T07:29:55.609Z,102448.67
2018-02-24T07:34:57.095Z,102450.80
2018-02-24T07:39:58.600Z,102453.30
2018-02-24T07:45:00.520Z,102441.58
2018-02-24T07:50:02.595Z,102449.84
2018-02-24T07:55:03.981Z,102446.91
2018-02-24T08:00:05.625Z,102446.42
2018-02-24T08:05:07.040Z,102444.61
2018-02-24T08:10:09.355Z,102452.66
2018-02-24T08:15:10.717Z,102423.80
2018-02-24T08:20:12.151Z,102460.79
2018-02-24T08:25:13.539Z,102478.42
2018-02-24T08:30:15.048Z,102476.05
2018-02-24T08:35:16.626Z,102481.84
2018-02-24T08:40:17.946Z,102490.06
2018-02-24T08:45:19.272Z,102481.47
2018-02-24T08:50:21.396Z,102488.60
2018-02-24T08:55:22.771Z,102485.11
2018-02-24T09:00:24.199Z,102498.11
2018-02-24T09:05:25.660Z,102494.98
2018-02-24T09:10:27.066Z,102505.03
2018-02-24T09:15:29.192Z,102507.30
2018-02-24T09:20:30.553Z,102511.21
2018-02-24T09:25:32.656Z,102518.52
2018-02-24T09:30:34.723Z,102526.24
2018-02-24T09:35:36.064Z,102526.84
2018-02-24T09:40:38.184Z,102525.92
2018-02-24T09:45:39.507Z,102526.06
2018-02-24T09:50:40.897Z,102535.70
2018-02-24T09:55:42.296Z,102533.93
2018-02-24T10:00:43.659Z,102534.94
2018-02-24T10:05:45.020Z,102518.56
2018-02-24T10:10:47.114Z,102535.23
2018-02-24T10:15:48.434Z,102530.88
2018-02-24T10:20:49.989Z,102537.27
2018-02-24T10:25:51.899Z,102536.41
2018-02-24T10:30:53.332Z,102529.02
2018-02-24T10:35:54.711Z,102531.80
2018-02-24T10:40:56.147Z,102529.98
2018-02-24T10:45:57.519Z,102539.34
2018-02-24T10:51:00.410Z,102522.42
2018-02-24T10:56:04.762Z,102536.48
2018-02-24T11:01:09.290Z,102525.72
2018-02-24T11:06:12.641Z,102523.00
2018-02-24T11:11:16.026Z,102517.55
2018-02-24T11:16:19.464Z,102532.42
2018-02-24T11:21:23.582Z,102512.20
2018-02-24T11:26:27.800Z,102507.04
2018-02-24T11:31:32.982Z,102502.14
2018-02-24T11:36:40.156Z,102498.47
2018-02-24T11:41:43.008Z,102496.67
2018-02-24T11:46:52.064Z,102502.23
2018-02-24T11:51:53.477Z,102497.16
2018-02-24T11:56:54.843Z,102493.19
2018-02-24T12:01:56.233Z,102495.57
2018-02-24T12:06:57.590Z,102490.51
2018-02-24T12:11:58.991Z,102498.16
2018-02-24T12:17:01.104Z,102496.32
2018-02-24T12:22:03.278Z,102495.31
2018-02-24T12:27:04.707Z,102490.26
2018-02-24T12:32:06.895Z,102477.09
2018-02-24T12:37:09.300Z,102483.21
2018-02-24T12:42:11.267Z,102477.17
2018-02-24T12:47:12.767Z,102479.78
2018-02-24T12:52:14.119Z,102486.56
2018-02-24T12:57:15.512Z,102479.93
2018-02-24T13:02:18.415Z,102472.23
2018-02-24T13:07:19.902Z,102479.26
2018-02-24T13:12:21.286Z,102473.52
2018-02-24T13:17:22.684Z,102482.23
2018-02-24T13:22:24.050Z,102473.28
2018-02-24T13:27:26.065Z,102472.80
2018-02-24T13:32:28.488Z,102481.11
2018-02-24T13:37:30.725Z,102472.41
2018-02-24T13:42:32.161Z,102467.84
2018-02-24T13:47:33.532Z,102469.98
2018-02-24T13:52:34.902Z,102471.30
2018-02-24T13:57:36.285Z,102468.21
2018-02-24T14:02:37.652Z,102485.33
2018-02-24T14:07:39.036Z,102480.42
2018-02-24T14:12:40.482Z,102486.97
2018-02-24T14:17:41.843Z,102492.33
2018-02-24T14:22:43.196Z,102482.43
2018-02-24T14:27:44.591Z,102487.16
2018-02-24T14:32:45.990Z,102493.32
2018-02-24T14:37:47.363Z,102488.34
2018-02-24T14:42:49.076Z,102484.41
2018-02-24T14:47:50.456Z,102480.69
2018-02-24T14:52:51.927Z,102486.98
2018-02-24T14:57:53.404Z,102480.35
2018-02-24T15:02:55.485Z,102488.05
2018-02-24T15:07:56.951Z,102484.54
2018-02-24T15:12:58.361Z,102489.44
2018-02-24T15:17:59.735Z,102499.23
2018-02-24T15:23:01.170Z,102499.25
2018-02-24T15:28:03.287Z,102500.03
2018-02-24T15:33:05.448Z,102511.66
2018-02-24T15:38:07.350Z,102488.84
2018-02-24T15:43:08.811Z,102494.47
2018-02-24T15:48:12.057Z,102475.39
2018-02-24T15:53:14.024Z,102486.78
2018-02-24T15:58:16.236Z,102498.25
2018-02-24T16:03:17.757Z,102505.47
2018-02-24T16:08:19.187Z,102520.45
2018-02-24T16:13:20.578Z,102509.48
2018-02-24T16:18:21.937Z,102516.34
2018-02-24T16:23:23.337Z,102506.56
2018-02-24T16:28:24.715Z,102521.33
2018-02-24T16:33:26.091Z,102516.41
2018-02-24T16:38:27.527Z,102522.91
2018-02-24T16:43:28.914Z,102528.03
2018-02-24T16:48:30.288Z,102525.45
2018-02-24T16:53:31.641Z,102523.44
2018-02-24T16:58:33.772Z,102525.41
2018-02-24T17:03:35.088Z,102530.36
2018-02-24T17:08:36.447Z,102520.39
2018-02-24T17:13:37.792Z,102549.02
2018-02-24T17:18:39.220Z,102540.19
2018-02-24T17:23:40.564Z,102551.91
2018-02-24T17:28:41.899Z,102550.89
2018-02-24T17:33:43.260Z,102558.55
2018-02-24T17:38:44.637Z,102558.95
2018-02-24T17:43:46.015Z,102567.84
2018-02-24T17:48:47.452Z,102572.20
2018-02-24T17:53:49.624Z,102573.27
2018-02-24T17:58:51.000Z,102568.83
2018-02-24T18:03:52.372Z,102572.87
2018-02-24T18:08:53.737Z,102572.87
2018-02-24T18:13:55.808Z,102582.08
2018-02-24T18:18:57.665Z,102585.84
2018-02-24T18:23:59.116Z,102572.23
2018-02-24T18:29:00.832Z,102570.45
2018-02-24T18:34:02.233Z,102582.78
2018-02-24T18:39:03.700Z,102588.45
2018-02-24T18:44:05.844Z,102584.80
2018-02-24T18:49:07.176Z,102589.03
2018-02-24T18:54:08.620Z,102607.08
2018-02-24T18:59:09.990Z,102608.25
2018-02-24T19:04:11.370Z,102618.62
2018-02-24T19:09:13.450Z,102608.50
2018-02-24T19:14:14.807Z,102613.91
2018-02-24T19:19:16.831Z,102608.81
2018-02-24T19:24:18.173Z,102615.86
2018-02-24T19:29:27.405Z,102616.20
2018-02-24T19:34:28.781Z,102630.22
2018-02-24T19:39:30.197Z,102623.57
2018-02-24T19:44:31.560Z,102632.55
2018-02-24T19:49:32.959Z,102630.66
2018-02-24T19:54:34.289Z,102639.27
2018-02-24T19:59:35.641Z,102649.77
2018-02-24T20:04:38.131Z,102639.42
2018-02-24T20:09:39.503Z,102639.13
2018-02-24T20:14:42.573Z,102643.97
2018-02-24T20:19:44.159Z,102652.47
2018-02-24T20:24:45.555Z,102667.13
2018-02-24T20:29:47.068Z,102658.55
2018-02-24T20:34:48.473Z,102665.99
2018-02-24T20:39:49.825Z,102681.14
2018-02-24T20:44:51.188Z,102678.54
2018-02-24T20:49:52.514Z,102685.88
2018-02-24T20:54:53.976Z,102680.11
2018-02-24T20:59:55.357Z,102690.13
2018-02-24T21:04:57.450Z,102690.69
2018-02-24T21:09:58.862Z,102694.92
2018-02-24T21:15:00.207Z,102686.77
2018-02-24T21:20:01.572Z,102695.87
2018-02-24T21:25:03.010Z,102699.17
2018-02-24T21:30:04.360Z,102717.41
2018-02-24T21:35:05.693Z,102712.71
2018-02-24T21:40:07.824Z,102706.78
2018-02-24T21:45:15.993Z,102713.30
2018-02-24T21:50:17.380Z,102707.75
2018-02-24T21:55:18.792Z,102711.44
2018-02-24T22:00:20.177Z,102717.89
2018-02-24T22:05:21.561Z,102710.77
2018-02-24T22:10:23.112Z,102711.98
2018-02-24T22:15:25.220Z,102723.58
2018-02-24T22:20:27.356Z,102728.91
2018-02-24T22:25:28.727Z,102736.38
2018-02-24T22:30:30.815Z,102732.33
2018-02-24T22:35:32.172Z,102734.73
2018-02-24T22:40:33.511Z,102736.93
2018-02-24T22:45:35.596Z,102730.91
2018-02-24T22:50:36.931Z,102741.27
2018-02-24T22:55:38.364Z,102739.58
2018-02-24T23:00:39.742Z,102745.19
2018-02-24T23:05:41.117Z,102737.12
2018-02-24T23:10:42.506Z,102745.91
2018-02-24T23:15:43.938Z,102738.47
2018-02-24T23:20:45.302Z,102732.92
2018-02-24T23:25:46.702Z,102736.52
2018-02-24T23:30:48.072Z,102744.10
2018-02-24T23:35:49.430Z,102748.23
2018-02-24T23:40:51.538Z,102750.99
2018-02-24T23:45:53.626Z,102761.19
2018-02-24T23:50:54.961Z,102760.73
2018-02-24T23:55:56.962Z,102755.11
